createdAt,value
2019-03-28T00:00:11.372Z,0.00
2019-03-28T00:01:22.017Z,0.00
2019-03-28T00:02:32.689Z,0.00
2019-03-28T00:03:43.338Z,0.00
2019-03-28T00:04:54.003Z,0.00
2019-03-28T00:06:04.656Z,0.00
2019-03-28T00:07:15.309Z,0.00
2019-03-28T00:08:25.980Z,0.00
2019-03-28T00:09:36.632Z,0.00
2019-03-28T00:10:47.287Z,0.00
2019-03-28T00:11:57.938Z,0.00
2019-03-28T00:13:08.605Z,0.00
2019-03-28T00:14:19.296Z,0.00
2019-03-28T00:15:29.908Z,0.00
2019-03-28T00:16:40.568Z,0.00
2019-03-28T00:17:51.225Z,0.00
2019-03-28T00:19:01.880Z,0.00
2019-03-28T00:20:12.531Z,0.00
2019-03-28T00:21:23.202Z,0.00
2019-03-28T00:22:33.851Z,0.00
2019-03-28T00:23:44.515Z,0.00
2019-03-28T00:24:55.163Z,0.00
2019-03-28T00:26:05.815Z,0.00
2019-03-28T00:27:16.474Z,0.00
2019-03-28T00:28:27.134Z,0.00
2019-03-28T00:29:37.785Z,0.00
2019-03-28T00:30:48.449Z,0.00
2019-03-28T00:31:59.107Z,0.00
2019-03-28T00:33:09.763Z,0.00
2019-03-28T00:34:20.423Z,0.00
2019-03-28T00:35:31.595Z,0.00
2019-03-28T00:36:42.352Z,0.00
2019-03-28T00:37:52.891Z,0.00
2019-03-28T00:39:03.551Z,0.00
2019-03-28T00:40:14.229Z,0.00
2019-03-28T00:41:24.882Z,0.00
2019-03-28T00:42:35.537Z,0.00
2019-03-28T00:43:46.202Z,0.00
2019-03-28T00:44:56.847Z,0.00
2019-03-28T00:46:07.496Z,0.00
2019-03-28T00:47:18.149Z,0.00
2019-03-28T00:48:28.804Z,0.00
2019-03-28T00:49:39.457Z,0.00
2019-03-28T00:50:50.106Z,0.00
2019-03-28T00:52:00.764Z,0.00
2019-03-28T00:53:11.410Z,0.00
2019-03-28T00:54:22.068Z,0.00
2019-03-28T00:55:32.722Z,0.00
2019-03-28T00:56:47.106Z,0.00
2019-03-28T00:57:54.029Z,0.00
2019-03-28T00:59:04.686Z,0.00
2019-03-28T01:00:16.331Z,0.00
2019-03-28T01:01:26.981Z,0.00
2019-03-28T01:02:37.632Z,0.00
2019-03-28T01:03:48.282Z,0.00
2019-03-28T01:04:58.943Z,0.00
2019-03-28T01:06:09.598Z,0.00
2019-03-28T01:07:20.246Z,0.00
2019-03-28T01:08:30.890Z,0.00
2019-03-28T01:09:41.556Z,0.00
2019-03-28T01:10:52.206Z,0.00
2019-03-28T01:12:02.889Z,0.00
2019-03-28T01:13:13.544Z,0.00
2019-03-28T01:14:24.213Z,0.00
2019-03-28T01:15:35.356Z,0.00
2019-03-28T01:16:46.495Z,0.00
2019-03-28T01:17:57.157Z,0.00
2019-03-28T01:19:07.812Z,0.00
2019-03-28T01:20:19.470Z,0.00
2019-03-28T01:21:30.127Z,0.00
2019-03-28T01:22:41.284Z,0.00
2019-03-28T01:23:52.130Z,0.00
2019-03-28T01:25:02.794Z,0.00
2019-03-28T01:26:13.451Z,0.00
2019-03-28T01:27:25.213Z,0.00
2019-03-28T01:28:35.250Z,0.00
2019-03-28T01:29:45.894Z,0.00
2019-03-28T01:30:56.552Z,0.00
2019-03-28T01:32:07.222Z,0.00
2019-03-28T01:33:18.871Z,0.00
2019-03-28T01:34:29.519Z,0.00
2019-03-28T01:35:40.183Z,0.00
2019-03-28T01:36:50.843Z,0.00
2019-03-28T01:38:01.601Z,0.00
2019-03-28T01:39:12.256Z,0.00
2019-03-28T01:40:22.925Z,0.00
2019-03-28T01:41:34.568Z,0.00
2019-03-28T01:42:45.219Z,0.00
2019-03-28T01:43:55.880Z,0.00
2019-03-28T01:45:06.536Z,0.00
2019-03-28T01:46:17.198Z,0.00
2019-03-28T01:47:27.857Z,0.00
2019-03-28T01:48:38.506Z,0.00
2019-03-28T01:49:49.160Z,0.00
2019-03-28T01:51:00.804Z,0.00
2019-03-28T01:52:11.449Z,0.00
2019-03-28T01:53:22.123Z,0.00
2019-03-28T01:54:32.776Z,0.00
2019-03-28T01:55:43.427Z,0.00
2019-03-28T01:56:54.572Z,0.00
2019-03-28T01:58:05.333Z,0.00
2019-03-28T01:59:15.923Z,0.00
2019-03-28T02:00:26.575Z,0.00
2019-03-28T02:01:37.228Z,0.00
2019-03-28T02:02:47.871Z,0.00
2019-03-28T02:03:58.540Z,0.00
2019-03-28T02:05:09.182Z,0.00
2019-03-28T02:06:19.839Z,0.00
2019-03-28T02:07:30.481Z,0.00
2019-03-28T02:08:42.622Z,0.00
2019-03-28T02:09:53.262Z,0.00
2019-03-28T02:11:03.928Z,0.00
2019-03-28T02:12:14.571Z,0.00
2019-03-28T02:13:25.719Z,0.00
2019-03-28T02:14:36.358Z,0.00
2019-03-28T02:15:47.576Z,0.00
2019-03-28T02:16:58.231Z,0.00
2019-03-28T02:18:08.883Z,0.00
2019-03-28T02:19:19.600Z,0.00
2019-03-28T02:20:30.659Z,0.00
2019-03-28T02:21:41.315Z,0.00
2019-03-28T02:22:51.956Z,0.00
2019-03-28T02:24:02.599Z,0.00
2019-03-28T02:25:13.249Z,0.00
2019-03-28T02:26:23.906Z,0.00
2019-03-28T02:27:34.548Z,0.00
2019-03-28T02:28:45.697Z,0.00
2019-03-28T02:29:56.338Z,0.00
2019-03-28T02:31:06.986Z,0.00
2019-03-28T02:32:17.645Z,0.00
2019-03-28T02:33:28.282Z,0.00
2019-03-28T02:34:38.936Z,0.00
2019-03-28T02:35:49.580Z,0.00
2019-03-28T02:37:00.721Z,0.00
2019-03-28T02:38:11.864Z,0.00
2019-03-28T02:39:24.526Z,0.00
2019-03-28T02:40:34.663Z,0.00
2019-03-28T02:41:45.303Z,0.00
2019-03-28T02:42:55.954Z,0.00
2019-03-28T02:44:07.087Z,0.00
2019-03-28T02:45:19.229Z,0.00
2019-03-28T02:46:29.868Z,0.00
2019-03-28T02:47:40.525Z,0.00
2019-03-28T02:48:51.184Z,0.00
2019-03-28T02:50:01.834Z,0.00
2019-03-28T02:51:12.497Z,0.00
2019-03-28T02:52:23.154Z,0.00
2019-03-28T02:53:33.909Z,0.00
2019-03-28T02:54:44.445Z,0.00
2019-03-28T02:55:55.121Z,0.00
2019-03-28T02:57:06.236Z,0.00
2019-03-28T02:58:17.389Z,0.00
2019-03-28T02:59:28.516Z,0.00
2019-03-28T03:00:38.674Z,0.00
2019-03-28T03:01:49.324Z,0.00
2019-03-28T03:02:59.971Z,0.00
2019-03-28T03:04:10.625Z,0.00
2019-03-28T03:05:21.771Z,0.00
2019-03-28T03:06:32.418Z,0.00
2019-03-28T03:07:43.076Z,0.00
2019-03-28T03:08:53.715Z,0.00
2019-03-28T03:10:04.374Z,0.00
2019-03-28T03:11:15.580Z,0.00
2019-03-28T03:12:26.248Z,0.00
2019-03-28T03:13:37.884Z,0.00
2019-03-28T03:14:48.552Z,0.00
2019-03-28T03:15:59.692Z,0.00
2019-03-28T03:17:10.355Z,0.00
2019-03-28T03:18:21.820Z,0.00
2019-03-28T03:19:32.135Z,0.00
2019-03-28T03:20:43.573Z,0.00
2019-03-28T03:21:53.434Z,0.00
2019-03-28T03:23:05.088Z,0.00
2019-03-28T03:24:15.737Z,0.00
2019-03-28T03:25:26.888Z,0.00
2019-03-28T03:26:37.545Z,0.00
2019-03-28T03:27:57.532Z,0.00
2019-03-28T03:28:58.842Z,0.00
2019-03-28T03:30:09.979Z,0.00
2019-03-28T03:31:22.214Z,0.00
2019-03-28T03:32:32.286Z,0.00
2019-03-28T03:33:42.945Z,0.00
2019-03-28T03:34:53.599Z,0.00
2019-03-28T03:36:04.252Z,0.00
2019-03-28T03:37:14.914Z,0.00
2019-03-28T03:38:25.583Z,0.00
2019-03-28T03:39:36.229Z,0.00
2019-03-28T03:40:47.361Z,0.00
2019-03-28T03:41:58.013Z,0.00
2019-03-28T03:43:09.172Z,0.00
2019-03-28T03:44:19.820Z,0.00
2019-03-28T03:45:30.458Z,0.00
2019-03-28T03:46:41.107Z,0.00
2019-03-28T03:47:51.757Z,0.00
2019-03-28T03:49:02.421Z,0.00
2019-03-28T03:50:13.068Z,0.00
2019-03-28T03:51:23.711Z,0.00
2019-03-28T03:52:34.368Z,0.00
2019-03-28T03:53:45.037Z,0.00
2019-03-28T03:54:55.682Z,0.00
2019-03-28T03:56:06.826Z,0.00
2019-03-28T03:57:17.602Z,0.00
2019-03-28T03:58:28.246Z,0.00
2019-03-28T03:59:38.898Z,0.00
2019-03-28T04:00:49.541Z,0.00
2019-03-28T04:02:00.183Z,0.00
2019-03-28T04:03:11.821Z,0.00
2019-03-28T04:04:22.479Z,0.00
2019-03-28T04:05:33.121Z,0.00
2019-03-28T04:06:43.755Z,0.00
2019-03-28T04:07:54.402Z,0.00
2019-03-28T04:09:05.053Z,0.00
2019-03-28T04:10:15.701Z,0.00
2019-03-28T04:11:26.348Z,0.00
2019-03-28T04:12:36.993Z,0.00
2019-03-28T04:13:47.641Z,0.00
2019-03-28T04:14:58.293Z,0.00
2019-03-28T04:16:08.947Z,0.00
2019-03-28T04:17:19.600Z,0.00
2019-03-28T04:18:30.257Z,0.00
2019-03-28T04:19:40.919Z,0.00
2019-03-28T04:20:51.767Z,0.00
2019-03-28T04:22:02.221Z,0.00
2019-03-28T04:23:12.852Z,0.00
2019-03-28T04:24:23.497Z,0.00
2019-03-28T04:25:34.181Z,0.00
2019-03-28T04:26:44.798Z,0.00
2019-03-28T04:27:55.449Z,0.00
2019-03-28T04:29:06.097Z,0.00
2019-03-28T04:30:16.736Z,0.00
2019-03-28T04:31:27.378Z,0.00
2019-03-28T04:32:38.019Z,0.00
2019-03-28T04:33:48.651Z,0.00
2019-03-28T04:34:59.646Z,0.00
2019-03-28T04:36:09.939Z,0.00
2019-03-28T04:37:21.588Z,0.00
2019-03-28T04:38:32.251Z,0.00
2019-03-28T04:39:42.894Z,0.00
2019-03-28T04:40:53.534Z,0.00
2019-03-28T04:42:04.182Z,4.00
2019-03-28T04:43:14.832Z,4.00
2019-03-28T04:44:25.466Z,0.00
2019-03-28T04:45:36.125Z,4.00
2019-03-28T04:46:46.764Z,4.00
2019-03-28T04:47:57.415Z,4.00
2019-03-28T04:49:08.058Z,8.00
2019-03-28T04:50:19.161Z,8.00
2019-03-28T04:51:29.815Z,8.00
2019-03-28T04:52:40.465Z,12.00
2019-03-28T04:53:52.115Z,16.00
2019-03-28T04:55:02.774Z,16.00
2019-03-28T04:56:13.422Z,24.00
2019-03-28T04:57:24.067Z,28.00
2019-03-28T04:58:44.466Z,36.00
2019-03-28T04:59:45.363Z,40.00
2019-03-28T05:00:56.008Z,48.00
2019-03-28T05:02:07.162Z,56.00
2019-03-28T05:03:17.806Z,64.00
2019-03-28T05:04:28.455Z,76.00
2019-03-28T05:05:39.105Z,88.00
2019-03-28T05:06:50.321Z,104.00
2019-03-28T05:08:00.895Z,116.00
2019-03-28T05:09:11.551Z,132.00
2019-03-28T05:10:22.208Z,144.00
2019-03-28T05:11:33.336Z,164.00
2019-03-28T05:12:43.601Z,180.00
2019-03-28T05:13:54.256Z,200.00
2019-03-28T05:15:04.904Z,216.00
2019-03-28T05:16:15.569Z,236.00
2019-03-28T05:17:26.219Z,260.00
2019-03-28T05:18:36.891Z,284.00
2019-03-28T05:19:48.421Z,308.00
2019-03-28T05:20:58.705Z,336.00
2019-03-28T05:22:09.368Z,360.00
2019-03-28T05:23:20.013Z,392.00
2019-03-28T05:24:30.680Z,420.00
2019-03-28T05:25:41.342Z,452.00
2019-03-28T05:26:52.001Z,488.00
2019-03-28T05:28:02.654Z,524.00
2019-03-28T05:29:13.309Z,552.00
2019-03-28T05:30:23.976Z,576.00
2019-03-28T05:31:34.637Z,592.00
2019-03-28T05:32:45.291Z,612.00
2019-03-28T05:33:55.963Z,632.00
2019-03-28T05:35:06.616Z,656.00
2019-03-28T05:36:18.473Z,692.00
2019-03-28T05:37:28.428Z,732.00
2019-03-28T05:38:39.086Z,776.00
2019-03-28T05:39:49.754Z,828.00
2019-03-28T05:41:00.431Z,884.00
2019-03-28T05:42:11.099Z,948.00
2019-03-28T05:43:21.766Z,1016.00
2019-03-28T05:44:32.434Z,1088.00
2019-03-28T05:45:44.154Z,1156.00
2019-03-28T05:46:53.783Z,1236.00
2019-03-28T05:48:04.458Z,1320.00
2019-03-28T05:49:15.144Z,1408.00
2019-03-28T05:50:25.813Z,1488.00
2019-03-28T05:51:36.492Z,1576.00
2019-03-28T05:52:47.157Z,1668.00
2019-03-28T05:53:57.828Z,1780.00
2019-03-28T05:55:08.502Z,1912.00
2019-03-28T05:56:19.180Z,2064.00
2019-03-28T05:57:29.859Z,2232.00
2019-03-28T05:58:40.539Z,2396.00
2019-03-28T05:59:51.205Z,2556.00
2019-03-28T06:01:01.888Z,2692.00
2019-03-28T06:02:12.572Z,2812.00
2019-03-28T06:03:23.244Z,2940.00
2019-03-28T06:04:34.362Z,3092.00
2019-03-28T06:05:44.596Z,3216.00
2019-03-28T06:06:55.278Z,3332.00
2019-03-28T06:08:05.955Z,3464.00
2019-03-28T06:09:17.638Z,3604.00
2019-03-28T06:10:29.322Z,3748.00
2019-03-28T06:11:40.015Z,3896.00
2019-03-28T06:12:50.697Z,4028.00
2019-03-28T06:14:01.389Z,4152.00
2019-03-28T06:15:12.090Z,4292.00
2019-03-28T06:16:22.780Z,4448.00
2019-03-28T06:17:33.476Z,4620.00
2019-03-28T06:18:44.162Z,4796.00
2019-03-28T06:19:54.853Z,4984.00
2019-03-28T06:21:06.048Z,5112.00
2019-03-28T06:22:16.758Z,5264.00
2019-03-28T06:23:27.460Z,5432.00
2019-03-28T06:24:38.180Z,5640.00
2019-03-28T06:25:49.531Z,5888.00
2019-03-28T06:26:59.586Z,6160.00
2019-03-28T06:28:10.295Z,6356.00
2019-03-28T06:29:24.130Z,6508.00
2019-03-28T06:30:31.706Z,6612.00
2019-03-28T06:31:54.743Z,6728.00
2019-03-28T06:32:53.126Z,6860.00
2019-03-28T06:34:03.844Z,6988.00
2019-03-28T06:35:14.562Z,7088.00
2019-03-28T06:36:26.742Z,7164.00
2019-03-28T06:37:35.989Z,7232.00
2019-03-28T06:38:47.197Z,7296.00
2019-03-28T06:39:57.920Z,7364.00
2019-03-28T06:41:08.647Z,7448.00
2019-03-28T06:42:19.380Z,7524.00
2019-03-28T06:43:30.601Z,7592.00
2019-03-28T06:44:41.334Z,7640.00
2019-03-28T06:45:52.063Z,7716.00
2019-03-28T06:47:02.798Z,7844.00
2019-03-28T06:48:14.586Z,7996.00
2019-03-28T06:49:25.835Z,8152.00
2019-03-28T06:50:36.533Z,8328.00
2019-03-28T06:51:47.267Z,8480.00
2019-03-28T06:52:58.012Z,8616.00
2019-03-28T06:54:08.749Z,8756.00
2019-03-28T06:55:19.498Z,8896.00
2019-03-28T06:56:30.734Z,9020.00
2019-03-28T06:57:41.941Z,9128.00
2019-03-28T06:58:52.692Z,9196.00
2019-03-28T07:00:03.924Z,9204.00
2019-03-28T07:01:14.665Z,9160.00
2019-03-28T07:02:25.423Z,9088.00
2019-03-28T07:03:37.166Z,8992.00
2019-03-28T07:04:47.929Z,8932.00
2019-03-28T07:05:58.683Z,8932.00
2019-03-28T07:07:09.627Z,8992.00
2019-03-28T07:08:20.386Z,9108.00
2019-03-28T07:09:31.137Z,9260.00
2019-03-28T07:10:41.881Z,9428.00
2019-03-28T07:11:52.639Z,9580.00
2019-03-28T07:13:03.402Z,9724.00
2019-03-28T07:14:14.158Z,9856.00
2019-03-28T07:15:24.920Z,9960.00
2019-03-28T07:16:35.682Z,10076.00
2019-03-28T07:17:46.453Z,10216.00
2019-03-28T07:18:57.843Z,10396.00
2019-03-28T07:20:09.210Z,10564.00
2019-03-28T07:21:19.399Z,10728.00
2019-03-28T07:22:30.185Z,10916.00
2019-03-28T07:23:40.941Z,11096.00
2019-03-28T07:24:51.709Z,11260.00
2019-03-28T07:26:02.580Z,11416.00
2019-03-28T07:27:13.553Z,11588.00
2019-03-28T07:28:24.343Z,11792.00
2019-03-28T07:29:36.118Z,11988.00
2019-03-28T07:30:48.852Z,12108.00
2019-03-28T07:31:59.656Z,12156.00
2019-03-28T07:33:10.954Z,12236.00
2019-03-28T07:34:21.743Z,12280.00
2019-03-28T07:35:32.524Z,12388.00
2019-03-28T07:36:43.307Z,12472.00
2019-03-28T07:37:54.101Z,12608.00
2019-03-28T07:39:04.901Z,12740.00
2019-03-28T07:40:15.696Z,12840.00
2019-03-28T07:41:26.599Z,12908.00
2019-03-28T07:42:37.387Z,12904.00
2019-03-28T07:43:48.682Z,12924.00
2019-03-28T07:44:59.481Z,12928.00
2019-03-28T07:46:10.768Z,13040.00
2019-03-28T07:47:21.568Z,13172.00
2019-03-28T07:48:32.379Z,13272.00
2019-03-28T07:49:43.183Z,13296.00
2019-03-28T07:50:53.983Z,13244.00
2019-03-28T07:52:05.319Z,13104.00
2019-03-28T07:53:16.206Z,12932.00
2019-03-28T07:54:27.025Z,12648.00
2019-03-28T07:55:37.840Z,12316.00
2019-03-28T07:56:49.485Z,11976.00
2019-03-28T07:57:59.954Z,11524.00
2019-03-28T07:59:10.794Z,11132.00
2019-03-28T08:00:21.601Z,10904.00
2019-03-28T08:01:32.913Z,10968.00
2019-03-28T08:02:43.737Z,10772.00
2019-03-28T08:03:54.559Z,10788.00
2019-03-28T08:05:06.875Z,10348.00
2019-03-28T08:06:17.689Z,9620.00
2019-03-28T08:07:28.509Z,8916.00
2019-03-28T08:08:39.322Z,8248.00
2019-03-28T08:09:50.136Z,7768.00
2019-03-28T08:11:00.954Z,7548.00
2019-03-28T08:12:22.532Z,7796.00
2019-03-28T08:13:23.069Z,7892.00
2019-03-28T08:14:33.884Z,7684.00
2019-03-28T08:15:45.181Z,7584.00
2019-03-28T08:16:55.993Z,7596.00
2019-03-28T08:18:06.806Z,7624.00
2019-03-28T08:19:17.614Z,7836.00
2019-03-28T08:20:28.417Z,7816.00
2019-03-28T08:21:39.217Z,7744.00
2019-03-28T08:22:50.022Z,7524.00
2019-03-28T08:24:00.834Z,7124.00
2019-03-28T08:25:12.278Z,7176.00
2019-03-28T08:26:22.590Z,7516.00
2019-03-28T08:27:33.381Z,7488.00
2019-03-28T08:28:44.171Z,7476.00
2019-03-28T08:29:57.739Z,7544.00
2019-03-28T08:31:05.809Z,7744.00
2019-03-28T08:32:16.617Z,7492.00
2019-03-28T08:33:27.415Z,7468.00
2019-03-28T08:34:38.217Z,8092.00
2019-03-28T08:35:49.014Z,11008.00
2019-03-28T08:36:59.821Z,11952.00
2019-03-28T08:38:10.630Z,13452.00
2019-03-28T08:39:21.921Z,14480.00
2019-03-28T08:40:32.731Z,15624.00
2019-03-28T08:41:43.535Z,15676.00
2019-03-28T08:42:54.353Z,15360.00
2019-03-28T08:44:07.326Z,15344.00
2019-03-28T08:45:15.988Z,15512.00
2019-03-28T08:46:26.803Z,15676.00
2019-03-28T08:47:37.622Z,17108.00
2019-03-28T08:48:48.444Z,17656.00
2019-03-28T08:49:59.277Z,19200.00
2019-03-28T08:51:10.638Z,20064.00
2019-03-28T08:52:21.497Z,21056.00
2019-03-28T08:53:32.357Z,22144.00
2019-03-28T08:54:43.228Z,23296.00
2019-03-28T08:55:54.081Z,22784.00
2019-03-28T08:57:04.942Z,22528.00
2019-03-28T08:58:16.320Z,22720.00
2019-03-28T08:59:27.680Z,22912.00
2019-03-28T09:00:51.779Z,22560.00
2019-03-28T09:01:49.939Z,22368.00
2019-03-28T09:03:00.826Z,22400.00
2019-03-28T09:04:11.715Z,22592.00
2019-03-28T09:05:22.618Z,20128.00
2019-03-28T09:06:33.527Z,19392.00
2019-03-28T09:07:44.432Z,19200.00
2019-03-28T09:08:55.828Z,20128.00
2019-03-28T09:10:06.739Z,20576.00
2019-03-28T09:11:21.338Z,20736.00
2019-03-28T09:12:29.074Z,22016.00
2019-03-28T09:13:39.991Z,23456.00
2019-03-28T09:14:50.921Z,23840.00
2019-03-28T09:16:01.858Z,27264.00
2019-03-28T09:17:12.785Z,27424.00
2019-03-28T09:18:23.725Z,29024.00
2019-03-28T09:19:34.671Z,28896.00
2019-03-28T09:20:45.627Z,29152.00
2019-03-28T09:21:56.602Z,31744.00
2019-03-28T09:23:08.585Z,36128.00
2019-03-28T09:24:19.555Z,38752.00
2019-03-28T09:25:30.545Z,35840.00
2019-03-28T09:26:41.531Z,53536.00
2019-03-28T09:27:52.532Z,35008.00
2019-03-28T09:29:03.530Z,37280.00
2019-03-28T09:30:14.553Z,34272.00
2019-03-28T09:31:25.571Z,47008.00
2019-03-28T09:32:37.101Z,36736.00
2019-03-28T09:33:48.144Z,64448.00
2019-03-28T09:34:59.722Z,38240.00
2019-03-28T09:36:10.798Z,52320.00
2019-03-28T09:37:21.889Z,34112.00
2019-03-28T09:38:32.986Z,31904.00
2019-03-28T09:39:44.109Z,55424.00
2019-03-28T09:40:55.238Z,40960.00
2019-03-28T09:42:06.926Z,48384.00
2019-03-28T09:43:18.000Z,44544.00
2019-03-28T09:44:29.139Z,39072.00
2019-03-28T09:45:40.291Z,41216.00
2019-03-28T09:46:51.945Z,41984.00
2019-03-28T09:48:03.107Z,45600.00
2019-03-28T09:49:14.280Z,51616.00
2019-03-28T09:50:25.462Z,47040.00
2019-03-28T09:51:37.641Z,49280.00
2019-03-28T09:52:48.826Z,58272.00
2019-03-28T09:54:00.024Z,37664.00
2019-03-28T09:55:11.274Z,33856.00
2019-03-28T09:56:22.427Z,33536.00
2019-03-28T09:57:33.622Z,32864.00
2019-03-28T09:58:44.816Z,33280.00
2019-03-28T09:59:56.005Z,33888.00
2019-03-28T10:01:07.206Z,37568.00
2019-03-28T10:02:18.904Z,37184.00
2019-03-28T10:03:30.092Z,37600.00
2019-03-28T10:04:41.276Z,35776.00
2019-03-28T10:05:52.590Z,37248.00
2019-03-28T10:07:03.854Z,36864.00
2019-03-28T10:08:14.990Z,37824.00
2019-03-28T10:09:26.179Z,35904.00
2019-03-28T10:10:37.379Z,34432.00
2019-03-28T10:11:48.586Z,35040.00
2019-03-28T10:12:59.770Z,36352.00
2019-03-28T10:14:10.963Z,36864.00
2019-03-28T10:15:22.161Z,38112.00
2019-03-28T10:16:33.364Z,40704.00
2019-03-28T10:17:44.555Z,39584.00
2019-03-28T10:18:55.767Z,40672.00
2019-03-28T10:20:06.965Z,42624.00
2019-03-28T10:21:18.180Z,46528.00
2019-03-28T10:22:29.385Z,45376.00
2019-03-28T10:23:40.598Z,88064.00
2019-03-28T10:24:52.828Z,48960.00
2019-03-28T10:26:04.072Z,57024.00
2019-03-28T10:27:15.323Z,54048.00
2019-03-28T10:28:27.086Z,49696.00
2019-03-28T10:29:38.366Z,50592.00
2019-03-28T10:30:49.651Z,47040.00
2019-03-28T10:32:00.936Z,44096.00
2019-03-28T10:33:12.239Z,44064.00
2019-03-28T10:34:23.543Z,47840.00
2019-03-28T10:35:34.850Z,45728.00
2019-03-28T10:36:46.154Z,43456.00
2019-03-28T10:37:57.470Z,41536.00
2019-03-28T10:39:08.780Z,39872.00
2019-03-28T10:40:20.589Z,38400.00
2019-03-28T10:41:31.898Z,36384.00
2019-03-28T10:42:43.213Z,34208.00
2019-03-28T10:43:54.511Z,33152.00
2019-03-28T10:45:05.802Z,32736.00
2019-03-28T10:46:17.602Z,32576.00
2019-03-28T10:47:28.884Z,33056.00
2019-03-28T10:48:40.172Z,34336.00
2019-03-28T10:49:51.449Z,36608.00
2019-03-28T10:51:02.737Z,38656.00
2019-03-28T10:52:14.021Z,39200.00
2019-03-28T10:53:25.300Z,39328.00
2019-03-28T10:54:36.576Z,38048.00
2019-03-28T10:55:47.852Z,37664.00
2019-03-28T10:57:12.518Z,38016.00
2019-03-28T10:58:18.693Z,41568.00
2019-03-28T10:59:24.014Z,45056.00
2019-03-28T11:00:33.428Z,45216.00
2019-03-28T11:01:50.103Z,43168.00
2019-03-28T11:02:56.037Z,44672.00
2019-03-28T11:04:07.279Z,53408.00
2019-03-28T11:05:18.569Z,54912.00
2019-03-28T11:06:30.347Z,69312.00
2019-03-28T11:07:41.664Z,82944.00
2019-03-28T11:08:52.982Z,88448.00
2019-03-28T11:10:05.347Z,89920.00
2019-03-28T11:11:16.707Z,83712.00
2019-03-28T11:12:28.113Z,83232.00
2019-03-28T11:13:39.530Z,82816.00
2019-03-28T11:14:50.973Z,80256.00
2019-03-28T11:16:02.449Z,83648.00
2019-03-28T11:17:13.940Z,87520.00
2019-03-28T11:18:25.957Z,89344.00
2019-03-28T11:19:37.493Z,94368.00
2019-03-28T11:20:49.051Z,94400.00
2019-03-28T11:22:00.632Z,89056.00
2019-03-28T11:23:12.237Z,88640.00
2019-03-28T11:24:23.863Z,88576.00
2019-03-28T11:25:35.499Z,85920.00
2019-03-28T11:26:48.656Z,86752.00
2019-03-28T11:28:00.309Z,88352.00
2019-03-28T11:29:11.988Z,82848.00
2019-03-28T11:30:23.684Z,80032.00
2019-03-28T11:31:45.675Z,89376.00
2019-03-28T11:32:47.377Z,89312.00
2019-03-28T11:33:59.114Z,81792.00
2019-03-28T11:35:11.353Z,89920.00
2019-03-28T11:36:23.123Z,88672.00
2019-03-28T11:37:34.903Z,94208.00
2019-03-28T11:38:46.694Z,88896.00
2019-03-28T11:39:58.591Z,87808.00
2019-03-28T11:41:11.877Z,91296.00
2019-03-28T11:42:23.698Z,79232.00
2019-03-28T11:43:35.505Z,83392.00
2019-03-28T11:44:47.315Z,85376.00
2019-03-28T11:45:59.136Z,90624.00
2019-03-28T11:47:10.969Z,91360.00
2019-03-28T11:48:22.804Z,89088.00
2019-03-28T11:49:34.651Z,90560.00
2019-03-28T11:50:46.590Z,90720.00
2019-03-28T11:51:58.437Z,88288.00
2019-03-28T11:53:10.283Z,89216.00
2019-03-28T11:54:22.133Z,68800.00
2019-03-28T11:55:33.984Z,98752.00
2019-03-28T11:56:46.315Z,93504.00
2019-03-28T11:57:58.161Z,89568.00
2019-03-28T11:59:10.010Z,95904.00
2019-03-28T12:00:21.869Z,93376.00
2019-03-28T12:01:34.218Z,92448.00
2019-03-28T12:02:46.093Z,91872.00
2019-03-28T12:03:58.447Z,34208.00
2019-03-28T12:05:10.791Z,53152.00
2019-03-28T12:06:23.127Z,55360.00
2019-03-28T12:07:34.962Z,96480.00
2019-03-28T12:08:46.772Z,48896.00
2019-03-28T12:09:58.593Z,85088.00
2019-03-28T12:11:10.418Z,90496.00
2019-03-28T12:12:22.252Z,57344.00
2019-03-28T12:13:44.621Z,34368.00
2019-03-28T12:14:46.383Z,31424.00
2019-03-28T12:15:58.153Z,29472.00
2019-03-28T12:17:10.408Z,26368.00
2019-03-28T12:18:24.908Z,24864.00
2019-03-28T12:19:34.321Z,24128.00
2019-03-28T12:20:45.981Z,22848.00
2019-03-28T12:21:58.107Z,23584.00
2019-03-28T12:23:09.724Z,24128.00
2019-03-28T12:24:21.321Z,25248.00
2019-03-28T12:25:32.904Z,27424.00
2019-03-28T12:26:44.938Z,29888.00
2019-03-28T12:27:56.591Z,55424.00
2019-03-28T12:29:08.607Z,28224.00
2019-03-28T12:30:20.643Z,24704.00
2019-03-28T12:31:33.393Z,22688.00
2019-03-28T12:32:43.615Z,22912.00
2019-03-28T12:33:55.079Z,24896.00
2019-03-28T12:35:06.530Z,26816.00
2019-03-28T12:36:18.816Z,31584.00
2019-03-28T12:37:30.028Z,73216.00
2019-03-28T12:38:41.474Z,47968.00
2019-03-28T12:39:53.409Z,65536.00
2019-03-28T12:41:05.877Z,70112.00
2019-03-28T12:42:17.883Z,71008.00
2019-03-28T12:43:29.859Z,61312.00
2019-03-28T12:44:41.377Z,33824.00
2019-03-28T12:45:52.903Z,29984.00
2019-03-28T12:47:04.425Z,27936.00
2019-03-28T12:48:16.419Z,27168.00
2019-03-28T12:49:27.913Z,26976.00
2019-03-28T12:50:39.892Z,24000.00
2019-03-28T12:51:51.403Z,20096.00
2019-03-28T12:53:02.851Z,18784.00
2019-03-28T12:54:14.310Z,18880.00
2019-03-28T12:55:25.751Z,20192.00
2019-03-28T12:56:37.183Z,22144.00
2019-03-28T12:57:48.712Z,24416.00
2019-03-28T12:59:00.019Z,25728.00
2019-03-28T13:00:11.907Z,28096.00
2019-03-28T13:01:23.289Z,55456.00
2019-03-28T13:02:34.698Z,61920.00
2019-03-28T13:03:46.673Z,48768.00
2019-03-28T13:04:58.060Z,35872.00
2019-03-28T13:06:09.511Z,28768.00
2019-03-28T13:07:21.003Z,27360.00
2019-03-28T13:08:32.348Z,27936.00
2019-03-28T13:09:43.769Z,37088.00
2019-03-28T13:10:55.184Z,31392.00
2019-03-28T13:12:06.614Z,27552.00
2019-03-28T13:13:18.040Z,27840.00
2019-03-28T13:14:31.302Z,26816.00
2019-03-28T13:15:40.879Z,26592.00
2019-03-28T13:16:52.281Z,26080.00
2019-03-28T13:18:03.680Z,24320.00
2019-03-28T13:19:15.071Z,25088.00
2019-03-28T13:20:26.451Z,23552.00
2019-03-28T13:21:38.824Z,23520.00
2019-03-28T13:22:51.991Z,23392.00
2019-03-28T13:24:01.755Z,23488.00
2019-03-28T13:25:13.122Z,22464.00
2019-03-28T13:26:24.496Z,21472.00
2019-03-28T13:27:36.512Z,20416.00
2019-03-28T13:28:47.181Z,19168.00
2019-03-28T13:29:58.513Z,18752.00
2019-03-28T13:31:09.842Z,18112.00
2019-03-28T13:32:21.149Z,16712.00
2019-03-28T13:33:32.461Z,17108.00
2019-03-28T13:34:43.756Z,20576.00
2019-03-28T13:35:55.060Z,67456.00
2019-03-28T13:37:06.378Z,64352.00
2019-03-28T13:38:17.716Z,69472.00
2019-03-28T13:39:29.563Z,67840.00
2019-03-28T13:40:40.936Z,66144.00
2019-03-28T13:41:52.842Z,70784.00
2019-03-28T13:43:05.027Z,67008.00
2019-03-28T13:44:16.209Z,63072.00
2019-03-28T13:45:28.189Z,61824.00
2019-03-28T13:46:40.162Z,58976.00
2019-03-28T13:47:54.284Z,50656.00
2019-03-28T13:49:04.162Z,43392.00
2019-03-28T13:50:16.196Z,28288.00
2019-03-28T13:51:28.217Z,27776.00
2019-03-28T13:52:40.219Z,28480.00
2019-03-28T13:53:52.348Z,27232.00
2019-03-28T13:55:03.715Z,37568.00
2019-03-28T13:56:15.757Z,26496.00
2019-03-28T13:57:27.752Z,19520.00
2019-03-28T13:58:39.466Z,17632.00
2019-03-28T13:59:51.191Z,17120.00
2019-03-28T14:01:03.130Z,17184.00
2019-03-28T14:02:14.568Z,15916.00
2019-03-28T14:03:26.584Z,15816.00
2019-03-28T14:04:38.613Z,16484.00
2019-03-28T14:05:50.609Z,17152.00
2019-03-28T14:07:02.588Z,17232.00
2019-03-28T14:08:14.558Z,16632.00
2019-03-28T14:09:25.807Z,15352.00
2019-03-28T14:10:37.662Z,13964.00
2019-03-28T14:11:49.008Z,12792.00
2019-03-28T14:13:00.836Z,11588.00
2019-03-28T14:14:12.654Z,10216.00
2019-03-28T14:15:24.465Z,9160.00
2019-03-28T14:16:36.256Z,8476.00
2019-03-28T14:17:47.545Z,8152.00
2019-03-28T14:18:59.353Z,8196.00
2019-03-28T14:20:11.108Z,8320.00
2019-03-28T14:21:23.164Z,8720.00
2019-03-28T14:22:34.903Z,9220.00
2019-03-28T14:23:46.140Z,9792.00
2019-03-28T14:24:57.376Z,10212.00
2019-03-28T14:26:09.607Z,10404.00
2019-03-28T14:27:20.809Z,10400.00
2019-03-28T14:28:32.014Z,10288.00
2019-03-28T14:29:43.720Z,10196.00
2019-03-28T14:30:55.905Z,10272.00
2019-03-28T14:32:07.094Z,10468.00
2019-03-28T14:33:18.764Z,10788.00
2019-03-28T14:34:30.601Z,10892.00
2019-03-28T14:35:42.264Z,10872.00